Overview Statistics Trail Chart Weather Telemetry Raw packets
 

This is the latest recevied weather packets stored in our database for station/object JL1LCW-13. If no packets are shown the sender has not sent any weather packets the latest 10 day(s).

<< 5 6 7 8 9 10 11 >>
Time Temp. Humidity Pressure Rain* Wind** Luminosity Snow
1788360539 25° C 99% 1016 hPa 0 mm - - -
1788357840 25° C 99% 1016 hPa 0 mm - - -
1788356940 25° C 99% 1016 hPa 0 mm - - -
1788354241 25° C 99% 1016 hPa 0 mm - - -
1788353340 25° C 99% 1016 hPa 0 mm - - -
1788350639 25° C 99% 1017 hPa 0 mm - - -
1788349740 25° C 99% 1017 hPa 0 mm - - -
1788347039 25° C 99% 1017 hPa 0 mm - - -
1788346139 25° C 99% 1017 hPa 0 mm - - -
1788343440 26.11° C 99% 1016 hPa 0 mm - - -
1788342541 26.11° C 99% 1016 hPa 0 mm - - -
1788339840 27.22° C 99% 1016 hPa 0 mm - - -
1788338939 27.22° C 99% 1016 hPa 0 mm - - -
1788336239 28.89° C 93% 1016 hPa 0 mm - - -
1788335341 28.89° C 93% 1016 hPa 0 mm - - -
1788332640 28.89° C 94% 1016 hPa 0 mm - - -
1788331739 30° C 94% 1016 hPa 0 mm - - -
1788329040 31.11° C 91% 1016 hPa 0 mm - - -
1788328139 32.22° C 87% 1016 hPa 0 mm - - -
1788325439 31.11° C 89% 1016 hPa 0 mm - - -
1788324539 31.11° C 93% 1016 hPa 0 mm - - -
1788321840 32.78° C 86% 1017 hPa 0 mm - - -
1788320940 32.22° C 88% 1017 hPa 0 mm - - -
1788318241 28.89° C 99% 1017 hPa 0 mm - - -
1788317360 27.78° C 99% 1017 hPa 0 mm - - -

* Rain latest hour (hover to see other rain measurements)
** Current wind speed in m/s (hover to see current wind gust speed)